Terminal Aerodrome Forecast
Issued by NWS

Home | Current Version | Previous Version | Text Only | Print | Product List | Glossary On
Versions: 1 2 3 4 5 6 7 8 9 10 11 12 13 14 15 16 17 18 19 20 21 22 23
000
FTUS41 KOKX 162340
TAFSWF
TAF
KSWF 162340Z 1700/1806 VRB02KT P6SM BKN120
     FM170800 00000KT P6SM SCT015 OVC040
     FM171300 00000KT 5SM -FZRA BKN010 OVC030
     FM171600 VRB04KT 2SM -RA BR BKN007 OVC010
     FM180000 VRB04KT 1SM -RA BR OVC005
      AMD NOT SKED=

USA.gov is the U.S. government's official web portal to all federal, state and local government web resources and services.